sensor_id;sensor_type;location;lat;lon;timestamp;P1;durP1;ratioP1;P2;durP2;ratioP2
70667;SDS011;58242;51.250;-1.118;2023-03-01T00:01:04;2.85;;;2.75;;
70667;SDS011;58242;51.250;-1.118;2023-03-01T00:03:31;2.83;;;2.65;;
70667;SDS011;58242;51.250;-1.118;2023-03-01T00:05:57;3.10;;;2.90;;
70667;SDS011;58242;51.250;-1.118;2023-03-01T00:08:23;2.85;;;2.65;;
70667;SDS011;58242;51.250;-1.118;2023-03-01T00:10:48;3.03;;;2.80;;
70667;SDS011;58242;51.250;-1.118;2023-03-01T00:13:14;3.70;;;3.22;;
70667;SDS011;58242;51.250;-1.118;2023-03-01T00:15:39;3.17;;;2.97;;
70667;SDS011;58242;51.250;-1.118;2023-03-01T00:18:06;2.80;;;2.70;;
70667;SDS011;58242;51.250;-1.118;2023-03-01T00:20:33;2.90;;;2.70;;
70667;SDS011;58242;51.250;-1.118;2023-03-01T00:22:58;3.55;;;2.92;;
70667;SDS011;58242;51.250;-1.118;2023-03-01T00:25:24;2.92;;;2.72;;
70667;SDS011;58242;51.250;-1.118;2023-03-01T00:27:49;3.10;;;2.90;;
70667;SDS011;58242;51.250;-1.118;2023-03-01T00:30:14;3.10;;;3.00;;
70667;SDS011;58242;51.250;-1.118;2023-03-01T00:32:40;2.92;;;2.72;;
70667;SDS011;58242;51.250;-1.118;2023-03-01T00:35:05;2.80;;;2.70;;
70667;SDS011;58242;51.250;-1.118;2023-03-01T00:37:31;3.38;;;3.17;;
70667;SDS011;58242;51.250;-1.118;2023-03-01T00:39:56;3.08;;;2.97;;
70667;SDS011;58242;51.250;-1.118;2023-03-01T00:42:21;2.90;;;2.80;;
70667;SDS011;58242;51.250;-1.118;2023-03-01T00:44:47;2.85;;;2.60;;
70667;SDS011;58242;51.250;-1.118;2023-03-01T00:47:12;2.60;;;2.50;;
70667;SDS011;58242;51.250;-1.118;2023-03-01T00:49:38;3.42;;;3.22;;
70667;SDS011;58242;51.250;-1.118;2023-03-01T00:52:04;3.20;;;2.90;;
70667;SDS011;58242;51.250;-1.118;2023-03-01T00:54:29;3.35;;;3.08;;
70667;SDS011;58242;51.250;-1.118;2023-03-01T00:56:55;4.03;;;3.08;;
70667;SDS011;58242;51.250;-1.118;2023-03-01T00:59:20;3.30;;;3.10;;
70667;SDS011;58242;51.250;-1.118;2023-03-01T01:01:45;3.80;;;3.60;;
70667;SDS011;58242;51.250;-1.118;2023-03-01T01:04:11;3.65;;;3.40;;
70667;SDS011;58242;51.250;-1.118;2023-03-01T01:06:39;3.20;;;3.10;;
70667;SDS011;58242;51.250;-1.118;2023-03-01T01:09:07;3.50;;;3.40;;
70667;SDS011;58242;51.250;-1.118;2023-03-01T01:11:34;3.15;;;2.95;;
70667;SDS011;58242;51.250;-1.118;2023-03-01T01:14:01;2.80;;;2.65;;
70667;SDS011;58242;51.250;-1.118;2023-03-01T01:16:27;3.28;;;3.17;;
70667;SDS011;58242;51.250;-1.118;2023-03-01T01:18:54;2.90;;;2.80;;
70667;SDS011;58242;51.250;-1.118;2023-03-01T01:21:21;3.53;;;3.33;;
70667;SDS011;58242;51.250;-1.118;2023-03-01T01:23:48;4.00;;;3.70;;
70667;SDS011;58242;51.250;-1.118;2023-03-01T01:26:14;3.65;;;3.45;;
70667;SDS011;58242;51.250;-1.118;2023-03-01T01:28:40;3.53;;;3.42;;
70667;SDS011;58242;51.250;-1.118;2023-03-01T01:31:05;3.72;;;3.53;;
70667;SDS011;58242;51.250;-1.118;2023-03-01T01:33:31;3.35;;;3.25;;
70667;SDS011;58242;51.250;-1.118;2023-03-01T01:35:57;3.38;;;3.20;;
70667;SDS011;58242;51.250;-1.118;2023-03-01T01:38:23;4.13;;;3.83;;
70667;SDS011;58242;51.250;-1.118;2023-03-01T01:40:48;3.30;;;3.10;;
70667;SDS011;58242;51.250;-1.118;2023-03-01T01:43:22;3.70;;;3.30;;
70667;SDS011;58242;51.250;-1.118;2023-03-01T01:45:48;3.67;;;3.47;;
70667;SDS011;58242;51.250;-1.118;2023-03-01T01:48:15;3.92;;;3.72;;
70667;SDS011;58242;51.250;-1.118;2023-03-01T01:50:44;3.38;;;3.20;;
70667;SDS011;58242;51.250;-1.118;2023-03-01T01:53:11;3.40;;;3.20;;
70667;SDS011;58242;51.250;-1.118;2023-03-01T01:55:41;3.55;;;3.35;;
70667;SDS011;58242;51.250;-1.118;2023-03-01T02:00:35;3.08;;;2.97;;
70667;SDS011;58242;51.250;-1.118;2023-03-01T02:03:05;3.50;;;3.40;;
70667;SDS011;58242;51.250;-1.118;2023-03-01T02:08:17;3.20;;;3.10;;
70667;SDS011;58242;51.250;-1.118;2023-03-01T02:10:44;3.30;;;3.10;;
70667;SDS011;58242;51.250;-1.118;2023-03-01T02:13:10;3.55;;;3.25;;
70667;SDS011;58242;51.250;-1.118;2023-03-01T02:15:37;3.78;;;3.50;;
70667;SDS011;58242;51.250;-1.118;2023-03-01T02:18:04;3.42;;;3.30;;
70667;SDS011;58242;51.250;-1.118;2023-03-01T02:23:17;3.70;;;3.40;;
70667;SDS011;58242;51.250;-1.118;2023-03-01T02:28:22;3.50;;;3.30;;
70667;SDS011;58242;51.250;-1.118;2023-03-01T02:30:58;3.97;;;3.78;;
70667;SDS011;58242;51.250;-1.118;2023-03-01T02:33:42;3.97;;;3.70;;
70667;SDS011;58242;51.250;-1.118;2023-03-01T02:36:10;3.92;;;3.63;;
70667;SDS011;58242;51.250;-1.118;2023-03-01T02:38:42;3.88;;;3.60;;
70667;SDS011;58242;51.250;-1.118;2023-03-01T02:41:08;3.50;;;3.35;;
70667;SDS011;58242;51.250;-1.118;2023-03-01T02:43:37;3.40;;;3.20;;
70667;SDS011;58242;51.250;-1.118;2023-03-01T02:46:04;3.70;;;3.50;;
70667;SDS011;58242;51.250;-1.118;2023-03-01T02:48:51;3.30;;;3.20;;
70667;SDS011;58242;51.250;-1.118;2023-03-01T02:54:17;3.60;;;3.40;;
70667;SDS011;58242;51.250;-1.118;2023-03-01T02:56:43;3.40;;;3.30;;
70667;SDS011;58242;51.250;-1.118;2023-03-01T02:59:13;3.17;;;3.08;;
70667;SDS011;58242;51.250;-1.118;2023-03-01T03:01:40;2.95;;;2.85;;
70667;SDS011;58242;51.250;-1.118;2023-03-01T03:04:07;3.30;;;3.20;;
70667;SDS011;58242;51.250;-1.118;2023-03-01T03:06:35;3.50;;;3.30;;
70667;SDS011;58242;51.250;-1.118;2023-03-01T03:09:02;3.65;;;3.45;;
70667;SDS011;58242;51.250;-1.118;2023-03-01T03:11:29;4.10;;;3.90;;
70667;SDS011;58242;51.250;-1.118;2023-03-01T03:13:55;3.50;;;3.40;;
70667;SDS011;58242;51.250;-1.118;2023-03-01T03:16:21;3.53;;;3.42;;
70667;SDS011;58242;51.250;-1.118;2023-03-01T03:18:47;3.30;;;3.20;;
70667;SDS011;58242;51.250;-1.118;2023-03-01T03:21:12;3.40;;;3.22;;
70667;SDS011;58242;51.250;-1.118;2023-03-01T03:23:38;3.20;;;3.10;;
70667;SDS011;58242;51.250;-1.118;2023-03-01T03:26:04;3.55;;;3.38;;
70667;SDS011;58242;51.250;-1.118;2023-03-01T03:28:31;3.08;;;2.97;;
70667;SDS011;58242;51.250;-1.118;2023-03-01T03:30:57;4.05;;;3.17;;
70667;SDS011;58242;51.250;-1.118;2023-03-01T03:33:23;3.25;;;3.13;;
70667;SDS011;58242;51.250;-1.118;2023-03-01T03:35:49;2.38;;;2.28;;
70667;SDS011;58242;51.250;-1.118;2023-03-01T03:38:16;3.40;;;3.28;;
70667;SDS011;58242;51.250;-1.118;2023-03-01T03:40:48;3.10;;;3.00;;
70667;SDS011;58242;51.250;-1.118;2023-03-01T03:43:22;3.20;;;3.00;;
70667;SDS011;58242;51.250;-1.118;2023-03-01T03:45:48;3.30;;;3.10;;
70667;SDS011;58242;51.250;-1.118;2023-03-01T03:48:15;3.33;;;3.22;;
70667;SDS011;58242;51.250;-1.118;2023-03-01T03:50:41;3.85;;;3.55;;
70667;SDS011;58242;51.250;-1.118;2023-03-01T03:53:07;3.30;;;3.20;;
70667;SDS011;58242;51.250;-1.118;2023-03-01T03:55:35;3.17;;;3.08;;
70667;SDS011;58242;51.250;-1.118;2023-03-01T03:58:04;3.22;;;3.13;;
70667;SDS011;58242;51.250;-1.118;2023-03-01T04:00:34;3.38;;;3.28;;
70667;SDS011;58242;51.250;-1.118;2023-03-01T04:03:00;2.97;;;2.88;;
70667;SDS011;58242;51.250;-1.118;2023-03-01T04:05:26;3.05;;;2.95;;
70667;SDS011;58242;51.250;-1.118;2023-03-01T04:07:52;3.20;;;3.10;;
70667;SDS011;58242;51.250;-1.118;2023-03-01T04:10:42;3.40;;;3.20;;
70667;SDS011;58242;51.250;-1.118;2023-03-01T04:13:12;3.30;;;3.20;;
70667;SDS011;58242;51.250;-1.118;2023-03-01T04:15:39;3.40;;;3.30;;
70667;SDS011;58242;51.250;-1.118;2023-03-01T04:18:05;3.70;;;3.50;;
70667;SDS011;58242;51.250;-1.118;2023-03-01T04:20:33;3.30;;;3.20;;
70667;SDS011;58242;51.250;-1.118;2023-03-01T04:23:07;3.60;;;3.42;;
70667;SDS011;58242;51.250;-1.118;2023-03-01T04:25:46;3.40;;;3.30;;
70667;SDS011;58242;51.250;-1.118;2023-03-01T04:28:18;3.28;;;3.17;;
70667;SDS011;58242;51.250;-1.118;2023-03-01T04:30:49;3.20;;;3.10;;
70667;SDS011;58242;51.250;-1.118;2023-03-01T04:33:14;3.10;;;3.00;;
70667;SDS011;58242;51.250;-1.118;2023-03-01T04:35:40;3.58;;;3.30;;
70667;SDS011;58242;51.250;-1.118;2023-03-01T04:38:05;3.08;;;2.97;;
70667;SDS011;58242;51.250;-1.118;2023-03-01T04:40:32;3.40;;;3.30;;
70667;SDS011;58242;51.250;-1.118;2023-03-01T04:42:57;3.20;;;3.10;;
70667;SDS011;58242;51.250;-1.118;2023-03-01T04:45:23;3.60;;;3.50;;
70667;SDS011;58242;51.250;-1.118;2023-03-01T04:47:48;3.60;;;3.50;;
70667;SDS011;58242;51.250;-1.118;2023-03-01T04:50:15;3.75;;;3.65;;
70667;SDS011;58242;51.250;-1.118;2023-03-01T04:52:41;3.63;;;3.53;;
70667;SDS011;58242;51.250;-1.118;2023-03-01T04:55:08;3.50;;;3.40;;
70667;SDS011;58242;51.250;-1.118;2023-03-01T04:57:34;3.80;;;3.60;;
70667;SDS011;58242;51.250;-1.118;2023-03-01T04:59:59;4.13;;;3.92;;
70667;SDS011;58242;51.250;-1.118;2023-03-01T05:02:25;3.63;;;3.42;;
70667;SDS011;58242;51.250;-1.118;2023-03-01T05:04:50;3.55;;;3.45;;
70667;SDS011;58242;51.250;-1.118;2023-03-01T05:07:15;3.80;;;3.60;;
70667;SDS011;58242;51.250;-1.118;2023-03-01T05:09:44;3.78;;;3.58;;
70667;SDS011;58242;51.250;-1.118;2023-03-01T05:12:13;3.70;;;3.50;;
70667;SDS011;58242;51.250;-1.118;2023-03-01T05:14:39;3.78;;;3.58;;
70667;SDS011;58242;51.250;-1.118;2023-03-01T05:17:05;3.60;;;3.50;;
70667;SDS011;58242;51.250;-1.118;2023-03-01T05:19:31;3.58;;;3.38;;
70667;SDS011;58242;51.250;-1.118;2023-03-01T05:21:57;3.60;;;3.40;;
70667;SDS011;58242;51.250;-1.118;2023-03-01T05:24:33;3.90;;;3.70;;
70667;SDS011;58242;51.250;-1.118;2023-03-01T05:27:00;3.92;;;3.63;;
70667;SDS011;58242;51.250;-1.118;2023-03-01T05:29:26;3.72;;;3.53;;
70667;SDS011;58242;51.250;-1.118;2023-03-01T05:31:57;3.78;;;3.63;;
70667;SDS011;58242;51.250;-1.118;2023-03-01T05:34:28;4.35;;;4.00;;
70667;SDS011;58242;51.250;-1.118;2023-03-01T05:36:55;4.00;;;3.80;;
70667;SDS011;58242;51.250;-1.118;2023-03-01T05:39:21;3.67;;;3.58;;
70667;SDS011;58242;51.250;-1.118;2023-03-01T05:41:48;4.07;;;3.88;;
70667;SDS011;58242;51.250;-1.118;2023-03-01T05:46:42;3.78;;;3.58;;
70667;SDS011;58242;51.250;-1.118;2023-03-01T05:49:07;3.72;;;3.53;;
70667;SDS011;58242;51.250;-1.118;2023-03-01T05:51:33;3.70;;;3.50;;
70667;SDS011;58242;51.250;-1.118;2023-03-01T05:53:59;4.07;;;3.88;;
70667;SDS011;58242;51.250;-1.118;2023-03-01T05:56:24;4.00;;;3.80;;
70667;SDS011;58242;51.250;-1.118;2023-03-01T05:58:49;3.75;;;3.65;;
70667;SDS011;58242;51.250;-1.118;2023-03-01T06:01:15;4.00;;;3.90;;
70667;SDS011;58242;51.250;-1.118;2023-03-01T06:03:40;3.63;;;3.53;;
70667;SDS011;58242;51.250;-1.118;2023-03-01T06:06:05;4.20;;;4.00;;
70667;SDS011;58242;51.250;-1.118;2023-03-01T06:08:31;4.10;;;3.90;;
70667;SDS011;58242;51.250;-1.118;2023-03-01T06:10:56;4.13;;;3.92;;
70667;SDS011;58242;51.250;-1.118;2023-03-01T06:13:22;3.85;;;3.70;;
70667;SDS011;58242;51.250;-1.118;2023-03-01T06:15:48;3.90;;;3.70;;
70667;SDS011;58242;51.250;-1.118;2023-03-01T06:18:14;3.80;;;3.70;;
70667;SDS011;58242;51.250;-1.118;2023-03-01T06:20:39;4.10;;;3.90;;
70667;SDS011;58242;51.250;-1.118;2023-03-01T06:23:04;4.20;;;4.00;;
70667;SDS011;58242;51.250;-1.118;2023-03-01T06:25:30;4.10;;;3.90;;
70667;SDS011;58242;51.250;-1.118;2023-03-01T06:27:55;4.00;;;3.80;;
70667;SDS011;58242;51.250;-1.118;2023-03-01T06:30:21;4.25;;;4.05;;
70667;SDS011;58242;51.250;-1.118;2023-03-01T06:32:48;4.10;;;3.90;;
70667;SDS011;58242;51.250;-1.118;2023-03-01T06:35:14;4.43;;;4.22;;
70667;SDS011;58242;51.250;-1.118;2023-03-01T06:37:42;4.28;;;3.95;;
70667;SDS011;58242;51.250;-1.118;2023-03-01T06:40:08;3.45;;;3.35;;
70667;SDS011;58242;51.250;-1.118;2023-03-01T06:42:36;5.03;;;4.00;;
70667;SDS011;58242;51.250;-1.118;2023-03-01T06:45:03;3.90;;;3.75;;
70667;SDS011;58242;51.250;-1.118;2023-03-01T06:47:30;4.30;;;4.00;;
70667;SDS011;58242;51.250;-1.118;2023-03-01T06:49:55;3.53;;;3.42;;
70667;SDS011;58242;51.250;-1.118;2023-03-01T06:52:20;4.05;;;3.85;;
70667;SDS011;58242;51.250;-1.118;2023-03-01T06:54:46;3.70;;;3.50;;
70667;SDS011;58242;51.250;-1.118;2023-03-01T06:57:11;3.72;;;3.53;;
70667;SDS011;58242;51.250;-1.118;2023-03-01T06:59:36;4.32;;;4.13;;
70667;SDS011;58242;51.250;-1.118;2023-03-01T07:02:02;4.97;;;4.68;;
70667;SDS011;58242;51.250;-1.118;2023-03-01T07:04:27;4.00;;;3.80;;
70667;SDS011;58242;51.250;-1.118;2023-03-01T07:06:54;4.13;;;4.03;;
70667;SDS011;58242;51.250;-1.118;2023-03-01T07:09:20;3.70;;;3.60;;
70667;SDS011;58242;51.250;-1.118;2023-03-01T07:11:47;3.67;;;3.58;;
70667;SDS011;58242;51.250;-1.118;2023-03-01T07:14:12;4.57;;;4.38;;
70667;SDS011;58242;51.250;-1.118;2023-03-01T07:16:37;4.38;;;4.18;;
70667;SDS011;58242;51.250;-1.118;2023-03-01T07:19:03;3.70;;;3.50;;
70667;SDS011;58242;51.250;-1.118;2023-03-01T07:21:28;3.70;;;3.50;;
70667;SDS011;58242;51.250;-1.118;2023-03-01T07:23:53;3.80;;;3.60;;
70667;SDS011;58242;51.250;-1.118;2023-03-01T07:26:19;4.57;;;4.18;;
70667;SDS011;58242;51.250;-1.118;2023-03-01T07:28:44;4.20;;;4.00;;
70667;SDS011;58242;51.250;-1.118;2023-03-01T07:31:09;4.13;;;3.92;;
70667;SDS011;58242;51.250;-1.118;2023-03-01T07:33:34;3.40;;;3.30;;
70667;SDS011;58242;51.250;-1.118;2023-03-01T07:36:00;3.42;;;3.28;;
70667;SDS011;58242;51.250;-1.118;2023-03-01T07:38:27;3.55;;;3.35;;
70667;SDS011;58242;51.250;-1.118;2023-03-01T07:40:54;3.60;;;3.50;;
70667;SDS011;58242;51.250;-1.118;2023-03-01T07:43:23;3.50;;;3.30;;
70667;SDS011;58242;51.250;-1.118;2023-03-01T07:45:49;3.38;;;3.28;;
70667;SDS011;58242;51.250;-1.118;2023-03-01T07:48:14;3.30;;;3.20;;
70667;SDS011;58242;51.250;-1.118;2023-03-01T07:50:39;3.20;;;3.10;;
70667;SDS011;58242;51.250;-1.118;2023-03-01T07:53:05;3.60;;;3.50;;
70667;SDS011;58242;51.250;-1.118;2023-03-01T07:55:30;3.20;;;3.10;;
70667;SDS011;58242;51.250;-1.118;2023-03-01T07:57:55;3.40;;;3.30;;
70667;SDS011;58242;51.250;-1.118;2023-03-01T08:00:20;3.53;;;3.38;;
70667;SDS011;58242;51.250;-1.118;2023-03-01T08:02:46;3.28;;;3.03;;
70667;SDS011;58242;51.250;-1.118;2023-03-01T08:05:11;3.70;;;3.50;;
70667;SDS011;58242;51.250;-1.118;2023-03-01T08:07:36;3.67;;;3.38;;
70667;SDS011;58242;51.250;-1.118;2023-03-01T08:10:02;4.13;;;3.83;;
70667;SDS011;58242;51.250;-1.118;2023-03-01T08:12:28;4.20;;;4.00;;
70667;SDS011;58242;51.250;-1.118;2023-03-01T08:14:53;3.90;;;3.70;;
70667;SDS011;58242;51.250;-1.118;2023-03-01T08:17:19;3.08;;;2.97;;
70667;SDS011;58242;51.250;-1.118;2023-03-01T08:19:44;3.35;;;3.20;;
70667;SDS011;58242;51.250;-1.118;2023-03-01T08:22:09;3.10;;;3.00;;
70667;SDS011;58242;51.250;-1.118;2023-03-01T08:24:35;3.67;;;3.58;;
70667;SDS011;58242;51.250;-1.118;2023-03-01T08:27:00;4.28;;;3.70;;
70667;SDS011;58242;51.250;-1.118;2023-03-01T08:29:27;3.78;;;3.58;;
70667;SDS011;58242;51.250;-1.118;2023-03-01T08:31:53;3.88;;;3.67;;
70667;SDS011;58242;51.250;-1.118;2023-03-01T08:34:18;4.90;;;3.47;;
70667;SDS011;58242;51.250;-1.118;2023-03-01T08:36:44;3.83;;;3.53;;
70667;SDS011;58242;51.250;-1.118;2023-03-01T08:39:13;4.10;;;3.88;;
70667;SDS011;58242;51.250;-1.118;2023-03-01T08:41:40;3.88;;;3.58;;
70667;SDS011;58242;51.250;-1.118;2023-03-01T08:44:06;3.40;;;3.30;;
70667;SDS011;58242;51.250;-1.118;2023-03-01T08:46:37;3.53;;;3.33;;
70667;SDS011;58242;51.250;-1.118;2023-03-01T08:49:04;3.95;;;3.75;;
70667;SDS011;58242;51.250;-1.118;2023-03-01T08:51:31;3.47;;;2.70;;
70667;SDS011;58242;51.250;-1.118;2023-03-01T08:54:01;3.30;;;3.10;;
70667;SDS011;58242;51.250;-1.118;2023-03-01T08:56:37;3.28;;;3.08;;
70667;SDS011;58242;51.250;-1.118;2023-03-01T08:59:02;3.35;;;3.05;;
70667;SDS011;58242;51.250;-1.118;2023-03-01T09:01:28;2.55;;;2.45;;
70667;SDS011;58242;51.250;-1.118;2023-03-01T09:03:54;3.97;;;3.40;;
70667;SDS011;58242;51.250;-1.118;2023-03-01T09:06:20;3.40;;;3.30;;
70667;SDS011;58242;51.250;-1.118;2023-03-01T09:08:46;3.22;;;2.92;;
70667;SDS011;58242;51.250;-1.118;2023-03-01T09:11:14;3.33;;;3.13;;
70667;SDS011;58242;51.250;-1.118;2023-03-01T09:13:44;3.40;;;3.30;;
70667;SDS011;58242;51.250;-1.118;2023-03-01T09:16:11;3.28;;;3.08;;
70667;SDS011;58242;51.250;-1.118;2023-03-01T09:18:37;3.47;;;3.28;;
70667;SDS011;58242;51.250;-1.118;2023-03-01T09:23:33;3.33;;;3.22;;
70667;SDS011;58242;51.250;-1.118;2023-03-01T09:26:03;3.40;;;3.20;;
70667;SDS011;58242;51.250;-1.118;2023-03-01T09:28:30;3.90;;;3.60;;
70667;SDS011;58242;51.250;-1.118;2023-03-01T09:30:58;4.55;;;4.35;;
70667;SDS011;58242;51.250;-1.118;2023-03-01T09:35:55;4.85;;;4.55;;
70667;SDS011;58242;51.250;-1.118;2023-03-01T09:38:21;4.72;;;4.53;;
70667;SDS011;58242;51.250;-1.118;2023-03-01T09:40:46;4.68;;;4.47;;
70667;SDS011;58242;51.250;-1.118;2023-03-01T09:43:15;5.38;;;5.18;;
70667;SDS011;58242;51.250;-1.118;2023-03-01T09:45:47;4.97;;;4.80;;
70667;SDS011;58242;51.250;-1.118;2023-03-01T09:48:18;4.00;;;3.90;;
70667;SDS011;58242;51.250;-1.118;2023-03-01T09:50:48;4.32;;;4.13;;
70667;SDS011;58242;51.250;-1.118;2023-03-01T09:53:18;4.40;;;4.20;;
70667;SDS011;58242;51.250;-1.118;2023-03-01T10:09:35;3.58;;;3.47;;
70667;SDS011;58242;51.250;-1.118;2023-03-01T10:12:04;3.40;;;3.20;;
70667;SDS011;58242;51.250;-1.118;2023-03-01T10:14:36;3.40;;;3.20;;
70667;SDS011;58242;51.250;-1.118;2023-03-01T10:17:10;3.78;;;3.65;;
70667;SDS011;58242;51.250;-1.118;2023-03-01T10:19:45;3.20;;;3.10;;
70667;SDS011;58242;51.250;-1.118;2023-03-01T10:24:41;2.00;;;2.00;;
70667;SDS011;58242;51.250;-1.118;2023-03-01T10:27:09;2.58;;;2.38;;
70667;SDS011;58242;51.250;-1.118;2023-03-01T10:29:47;2.15;;;2.05;;
70667;SDS011;58242;51.250;-1.118;2023-03-01T10:32:20;1.83;;;1.73;;
70667;SDS011;58242;51.250;-1.118;2023-03-01T10:34:47;2.35;;;1.77;;
70667;SDS011;58242;51.250;-1.118;2023-03-01T10:40:03;1.67;;;1.60;;
70667;SDS011;58242;51.250;-1.118;2023-03-01T10:42:39;1.80;;;1.80;;
70667;SDS011;58242;51.250;-1.118;2023-03-01T10:45:29;1.58;;;1.58;;
70667;SDS011;58242;51.250;-1.118;2023-03-01T10:50:30;1.73;;;1.70;;
70667;SDS011;58242;51.250;-1.118;2023-03-01T10:52:57;1.63;;;1.52;;
70667;SDS011;58242;51.250;-1.118;2023-03-01T10:55:30;1.85;;;1.75;;
70667;SDS011;58242;51.250;-1.118;2023-03-01T11:00:59;1.80;;;1.58;;
70667;SDS011;58242;51.250;-1.118;2023-03-01T11:03:31;2.28;;;2.08;;
70667;SDS011;58242;51.250;-1.118;2023-03-01T11:08:39;1.77;;;1.67;;
70667;SDS011;58242;51.250;-1.118;2023-03-01T11:13:34;3.47;;;2.00;;
70667;SDS011;58242;51.250;-1.118;2023-03-01T11:16:00;1.92;;;1.83;;
70667;SDS011;58242;51.250;-1.118;2023-03-01T11:18:29;1.57;;;1.50;;
70667;SDS011;58242;51.250;-1.118;2023-03-01T11:20:55;1.90;;;1.80;;
70667;SDS011;58242;51.250;-1.118;2023-03-01T11:23:23;1.88;;;1.77;;
70667;SDS011;58242;51.250;-1.118;2023-03-01T11:25:57;2.03;;;1.83;;
70667;SDS011;58242;51.250;-1.118;2023-03-01T11:28:27;2.17;;;2.08;;
70667;SDS011;58242;51.250;-1.118;2023-03-01T11:31:03;2.38;;;2.22;;
70667;SDS011;58242;51.250;-1.118;2023-03-01T11:38:53;2.40;;;2.10;;
70667;SDS011;58242;51.250;-1.118;2023-03-01T11:41:21;2.40;;;2.20;;
70667;SDS011;58242;51.250;-1.118;2023-03-01T11:46:42;2.83;;;2.45;;
70667;SDS011;58242;51.250;-1.118;2023-03-01T11:52:13;2.65;;;2.00;;
70667;SDS011;58242;51.250;-1.118;2023-03-01T12:00:18;2.50;;;2.30;;
70667;SDS011;58242;51.250;-1.118;2023-03-01T12:24:41;2.92;;;2.63;;
70667;SDS011;58242;51.250;-1.118;2023-03-01T12:38:50;2.97;;;2.35;;
70667;SDS011;58242;51.250;-1.118;2023-03-01T12:47:35;2.47;;;2.35;;
70667;SDS011;58242;51.250;-1.118;2023-03-01T12:50:20;2.00;;;2.00;;
70667;SDS011;58242;51.250;-1.118;2023-03-01T12:52:52;2.40;;;2.30;;
70667;SDS011;58242;51.250;-1.118;2023-03-01T12:57:54;2.15;;;2.05;;
70667;SDS011;58242;51.250;-1.118;2023-03-01T13:01:00;2.20;;;2.10;;
70667;SDS011;58242;51.250;-1.118;2023-03-01T13:11:56;2.70;;;2.50;;
70667;SDS011;58242;51.250;-1.118;2023-03-01T13:16:47;2.50;;;2.40;;
70667;SDS011;58242;51.250;-1.118;2023-03-01T13:19:18;2.30;;;2.20;;
70667;SDS011;58242;51.250;-1.118;2023-03-01T13:21:44;2.47;;;2.38;;
70667;SDS011;58242;51.250;-1.118;2023-03-01T13:29:46;2.20;;;2.10;;
70667;SDS011;58242;51.250;-1.118;2023-03-01T13:32:19;2.28;;;2.17;;
70667;SDS011;58242;51.250;-1.118;2023-03-01T13:34:51;4.30;;;2.63;;
70667;SDS011;58242;51.250;-1.118;2023-03-01T13:37:19;3.10;;;2.90;;
70667;SDS011;58242;51.250;-1.118;2023-03-01T13:39:50;2.40;;;2.20;;
70667;SDS011;58242;51.250;-1.118;2023-03-01T13:42:30;2.50;;;2.00;;
70667;SDS011;58242;51.250;-1.118;2023-03-01T13:44:58;2.20;;;2.10;;
70667;SDS011;58242;51.250;-1.118;2023-03-01T13:47:25;1.90;;;1.80;;
70667;SDS011;58242;51.250;-1.118;2023-03-01T13:49:59;2.00;;;1.90;;
70667;SDS011;58242;51.250;-1.118;2023-03-01T13:52:31;1.95;;;1.92;;
70667;SDS011;58242;51.250;-1.118;2023-03-01T13:55:27;2.50;;;2.30;;
70667;SDS011;58242;51.250;-1.118;2023-03-01T13:57:58;3.95;;;2.13;;
70667;SDS011;58242;51.250;-1.118;2023-03-01T14:05:58;2.13;;;2.03;;
70667;SDS011;58242;51.250;-1.118;2023-03-01T14:08:27;2.70;;;2.60;;
70667;SDS011;58242;51.250;-1.118;2023-03-01T14:19:14;2.30;;;2.20;;
70667;SDS011;58242;51.250;-1.118;2023-03-01T14:24:29;2.20;;;2.15;;
70667;SDS011;58242;51.250;-1.118;2023-03-01T14:26:58;2.00;;;2.00;;
70667;SDS011;58242;51.250;-1.118;2023-03-01T14:29:26;2.28;;;2.17;;
70667;SDS011;58242;51.250;-1.118;2023-03-01T14:32:09;2.50;;;2.40;;
70667;SDS011;58242;51.250;-1.118;2023-03-01T14:34:34;2.47;;;2.35;;
70667;SDS011;58242;51.250;-1.118;2023-03-01T14:37:09;2.25;;;2.15;;
70667;SDS011;58242;51.250;-1.118;2023-03-01T14:39:45;2.22;;;2.13;;
70667;SDS011;58242;51.250;-1.118;2023-03-01T14:42:11;2.05;;;2.03;;
70667;SDS011;58242;51.250;-1.118;2023-03-01T14:44:40;2.28;;;2.20;;
70667;SDS011;58242;51.250;-1.118;2023-03-01T14:47:10;2.28;;;2.17;;
70667;SDS011;58242;51.250;-1.118;2023-03-01T14:49:38;2.03;;;2.00;;
70667;SDS011;58242;51.250;-1.118;2023-03-01T14:52:05;2.00;;;1.90;;
70667;SDS011;58242;51.250;-1.118;2023-03-01T14:57:24;1.77;;;1.77;;
70667;SDS011;58242;51.250;-1.118;2023-03-01T14:59:51;2.20;;;2.10;;
70667;SDS011;58242;51.250;-1.118;2023-03-01T15:02:19;1.98;;;1.98;;
70667;SDS011;58242;51.250;-1.118;2023-03-01T15:04:49;2.30;;;2.20;;
70667;SDS011;58242;51.250;-1.118;2023-03-01T15:07:17;4.03;;;2.63;;
70667;SDS011;58242;51.250;-1.118;2023-03-01T15:09:44;2.75;;;2.55;;
70667;SDS011;58242;51.250;-1.118;2023-03-01T15:14:57;2.03;;;1.92;;
70667;SDS011;58242;51.250;-1.118;2023-03-01T15:17:33;2.70;;;2.08;;
70667;SDS011;58242;51.250;-1.118;2023-03-01T15:20:01;2.30;;;2.20;;
70667;SDS011;58242;51.250;-1.118;2023-03-01T15:22:29;2.20;;;2.10;;
70667;SDS011;58242;51.250;-1.118;2023-03-01T15:24:54;2.25;;;2.15;;
70667;SDS011;58242;51.250;-1.118;2023-03-01T15:27:21;2.15;;;2.05;;
70667;SDS011;58242;51.250;-1.118;2023-03-01T15:29:49;1.85;;;1.85;;
70667;SDS011;58242;51.250;-1.118;2023-03-01T15:32:30;1.90;;;1.80;;
70667;SDS011;58242;51.250;-1.118;2023-03-01T15:35:00;2.15;;;1.92;;
70667;SDS011;58242;51.250;-1.118;2023-03-01T15:37:49;2.10;;;2.00;;
70667;SDS011;58242;51.250;-1.118;2023-03-01T15:40:18;1.95;;;1.95;;
70667;SDS011;58242;51.250;-1.118;2023-03-01T15:42:49;3.00;;;1.88;;
70667;SDS011;58242;51.250;-1.118;2023-03-01T15:47:56;2.47;;;2.38;;
70667;SDS011;58242;51.250;-1.118;2023-03-01T15:50:32;2.55;;;2.35;;
70667;SDS011;58242;51.250;-1.118;2023-03-01T15:53:00;1.90;;;1.90;;
70667;SDS011;58242;51.250;-1.118;2023-03-01T15:55:29;2.10;;;2.00;;
70667;SDS011;58242;51.250;-1.118;2023-03-01T16:00:38;1.98;;;1.92;;
70667;SDS011;58242;51.250;-1.118;2023-03-01T16:03:04;1.60;;;1.60;;
70667;SDS011;58242;51.250;-1.118;2023-03-01T16:05:31;2.03;;;2.00;;
70667;SDS011;58242;51.250;-1.118;2023-03-01T16:07:59;2.30;;;2.20;;
70667;SDS011;58242;51.250;-1.118;2023-03-01T16:10:25;2.00;;;1.90;;
70667;SDS011;58242;51.250;-1.118;2023-03-01T16:12:51;1.80;;;1.70;;
70667;SDS011;58242;51.250;-1.118;2023-03-01T16:15:30;1.60;;;1.50;;
70667;SDS011;58242;51.250;-1.118;2023-03-01T16:18:00;1.98;;;1.88;;
70667;SDS011;58242;51.250;-1.118;2023-03-01T16:20:26;1.80;;;1.70;;
70667;SDS011;58242;51.250;-1.118;2023-03-01T16:22:53;2.47;;;2.20;;
70667;SDS011;58242;51.250;-1.118;2023-03-01T16:25:19;2.50;;;2.30;;
70667;SDS011;58242;51.250;-1.118;2023-03-01T16:27:46;2.45;;;1.92;;
70667;SDS011;58242;51.250;-1.118;2023-03-01T16:30:15;2.10;;;2.00;;
70667;SDS011;58242;51.250;-1.118;2023-03-01T16:32:43;2.13;;;1.92;;
70667;SDS011;58242;51.250;-1.118;2023-03-01T16:35:11;2.10;;;2.00;;
70667;SDS011;58242;51.250;-1.118;2023-03-01T16:37:38;4.25;;;3.50;;
70667;SDS011;58242;51.250;-1.118;2023-03-01T16:40:04;3.05;;;2.67;;
70667;SDS011;58242;51.250;-1.118;2023-03-01T16:42:35;3.20;;;2.90;;
70667;SDS011;58242;51.250;-1.118;2023-03-01T16:47:27;2.80;;;2.60;;
70667;SDS011;58242;51.250;-1.118;2023-03-01T16:49:53;2.25;;;2.15;;
70667;SDS011;58242;51.250;-1.118;2023-03-01T16:52:19;1.77;;;1.67;;
70667;SDS011;58242;51.250;-1.118;2023-03-01T16:54:44;1.85;;;1.75;;
70667;SDS011;58242;51.250;-1.118;2023-03-01T16:57:10;1.52;;;1.50;;
70667;SDS011;58242;51.250;-1.118;2023-03-01T16:59:35;1.70;;;1.70;;
70667;SDS011;58242;51.250;-1.118;2023-03-01T17:02:02;1.70;;;1.70;;
70667;SDS011;58242;51.250;-1.118;2023-03-01T17:04:27;2.60;;;2.00;;
70667;SDS011;58242;51.250;-1.118;2023-03-01T17:06:52;1.85;;;1.83;;
70667;SDS011;58242;51.250;-1.118;2023-03-01T17:09:18;2.67;;;2.33;;
70667;SDS011;58242;51.250;-1.118;2023-03-01T17:11:46;2.80;;;2.60;;
70667;SDS011;58242;51.250;-1.118;2023-03-01T17:14:13;2.67;;;2.42;;